createdAt,value
2019-01-20T00:00:24.170Z,7.20
2019-01-20T00:04:40.972Z,9.77
2019-01-20T00:09:01.798Z,6.80
2019-01-20T00:13:18.657Z,4.23
2019-01-20T00:17:35.254Z,7.50
2019-01-20T00:21:51.945Z,8.30
2019-01-20T00:26:08.513Z,12.87
2019-01-20T00:30:25.042Z,11.23
2019-01-20T00:34:41.518Z,11.03
2019-01-20T00:38:58.007Z,6.37
2019-01-20T00:43:14.530Z,6.70
2019-01-20T00:47:33.334Z,3.60
2019-01-20T00:51:50.287Z,3.30
2019-01-20T00:56:06.798Z,5.37
2019-01-20T01:00:26.132Z,5.23
2019-01-20T01:04:44.997Z,4.93
2019-01-20T01:09:01.553Z,4.73
2019-01-20T01:13:18.321Z,4.97
2019-01-20T01:17:35.141Z,4.80
2019-01-20T01:21:51.756Z,3.97
2019-01-20T01:26:08.440Z,3.37
2019-01-20T01:30:24.999Z,3.63
2019-01-20T01:34:41.609Z,7.80
2019-01-20T01:38:58.244Z,6.27
2019-01-20T01:43:17.812Z,6.97
2019-01-20T01:47:34.456Z,7.87
2019-01-20T01:51:52.906Z,7.77
2019-01-20T01:56:09.544Z,5.27
2019-01-20T02:00:26.328Z,6.63
2019-01-20T02:04:56.076Z,7.03
2019-01-20T02:09:20.361Z,5.53
2019-01-20T04:37:36.885Z,3.67
2019-01-20T04:42:16.823Z,4.93
2019-01-20T04:46:46.047Z,4.43
2019-01-20T04:51:36.969Z,4.17
2019-01-20T04:55:58.139Z,13.50
2019-01-20T05:00:17.211Z,8.53
2019-01-20T05:04:41.976Z,5.93
2019-01-20T05:09:03.971Z,3.87
2019-01-20T05:13:23.918Z,4.03
2019-01-20T05:17:51.645Z,3.93
2019-01-20T05:22:22.257Z,5.67
2019-01-20T05:26:43.296Z,4.97
2019-01-20T05:31:02.010Z,9.17
2019-01-20T05:35:19.713Z,7.43
2019-01-20T05:39:39.437Z,10.53
2019-01-20T05:43:55.944Z,9.63
2019-01-20T05:48:12.664Z,4.10
2019-01-20T05:52:31.129Z,5.47
2019-01-20T05:56:47.615Z,4.77
2019-01-20T06:01:04.438Z,5.30
2019-01-20T06:05:20.879Z,8.57
2019-01-20T06:09:37.314Z,4.30
2019-01-20T06:13:53.765Z,4.87
2019-01-20T06:18:10.243Z,4.67
2019-01-20T06:22:26.916Z,3.53
2019-01-20T06:26:43.371Z,3.87
2019-01-20T06:30:59.767Z,2.70
2019-01-20T06:35:16.479Z,4.20
2019-01-20T06:39:33.246Z,5.43
2019-01-20T06:43:49.683Z,6.87
2019-01-20T06:48:06.416Z,7.43
2019-01-20T06:52:23.104Z,5.27
2019-01-20T06:56:39.531Z,5.43
2019-01-20T07:00:56.244Z,7.33
2019-01-20T07:05:12.788Z,7.63
2019-01-20T07:09:29.324Z,6.50
2019-01-20T07:13:45.769Z,6.57
2019-01-20T07:18:02.177Z,6.37
2019-01-20T07:22:24.410Z,9.30
2019-01-20T07:26:40.857Z,6.67
2019-01-20T07:30:57.287Z,12.90
2019-01-20T07:35:14.060Z,10.07
2019-01-20T07:39:30.516Z,17.37
2019-01-20T07:43:47.201Z,11.90
2019-01-20T07:48:03.644Z,8.03
2019-01-20T07:52:20.032Z,6.77
2019-01-20T07:56:36.474Z,10.77
2019-01-20T08:00:52.886Z,11.87
2019-01-20T08:05:10.231Z,11.20
2019-01-20T08:09:26.686Z,13.77
2019-01-20T08:13:43.105Z,35.60
2019-01-20T08:17:59.542Z,22.57
2019-01-20T08:22:16.261Z,10.57
2019-01-20T08:26:32.836Z,10.90
2019-01-20T08:30:49.359Z,10.47
2019-01-20T08:35:07.346Z,7.87
2019-01-20T08:39:23.781Z,9.53
2019-01-20T08:43:40.223Z,5.43
2019-01-20T08:48:00.406Z,12.60
2019-01-20T08:52:16.847Z,5.63
2019-01-20T08:56:33.276Z,11.60
2019-01-20T09:00:49.694Z,7.43
2019-01-20T09:05:06.150Z,12.67
2019-01-20T09:09:22.598Z,9.27
2019-01-20T09:13:40.163Z,9.87
2019-01-20T09:17:57.134Z,14.67
2019-01-20T09:22:13.599Z,15.63
2019-01-20T09:26:30.051Z,20.97
2019-01-20T09:30:46.720Z,16.67
2019-01-20T09:35:03.823Z,9.57
2019-01-20T09:39:20.267Z,7.77
2019-01-20T09:43:36.722Z,11.77
2019-01-20T09:47:53.139Z,12.77
2019-01-20T09:52:09.681Z,14.73
2019-01-20T09:56:26.170Z,10.30
2019-01-20T10:00:42.671Z,15.33
2019-01-20T10:04:59.236Z,10.17
2019-01-20T10:09:16.986Z,14.63
2019-01-20T10:13:33.453Z,19.40
2019-01-20T10:17:49.965Z,13.43
2019-01-20T10:22:06.510Z,12.07
2019-01-20T10:26:22.987Z,18.47
2019-01-20T10:30:39.812Z,16.80
2019-01-20T10:34:57.187Z,13.83
2019-01-20T10:39:13.778Z,11.70
2019-01-20T10:43:30.291Z,10.73
2019-01-20T10:47:46.793Z,12.60
2019-01-20T10:52:03.195Z,15.33
2019-01-20T10:56:19.894Z,20.37
2019-01-20T11:00:38.934Z,14.17
2019-01-20T11:04:57.535Z,15.20
2019-01-20T11:09:13.844Z,17.77
2019-01-20T11:13:30.423Z,18.20
2019-01-20T11:17:47.239Z,11.37
2019-01-20T11:22:03.667Z,19.90
2019-01-20T11:26:20.207Z,15.93
2019-01-20T11:30:36.605Z,11.63
2019-01-20T11:35:10.971Z,12.23
2019-01-20T11:39:28.426Z,14.37
2019-01-20T11:44:00.586Z,17.80
2019-01-20T11:48:17.885Z,21.67
2019-01-20T11:52:34.296Z,20.53
2019-01-20T11:56:50.729Z,21.17
2019-01-20T12:01:07.175Z,21.13
2019-01-20T12:05:23.615Z,11.17
2019-01-20T12:09:40.015Z,13.93
2019-01-20T12:13:56.450Z,19.37
2019-01-20T12:18:12.887Z,17.40
2019-01-20T12:22:29.595Z,17.77
2019-01-20T12:26:46.034Z,16.93
2019-01-20T12:31:02.635Z,24.00
2019-01-20T12:35:19.058Z,22.83
2019-01-20T12:39:35.839Z,20.43
2019-01-20T12:43:52.284Z,14.67
2019-01-20T12:48:08.710Z,18.90
2019-01-20T12:52:25.126Z,17.27
2019-01-20T12:56:41.850Z,25.00
2019-01-20T13:00:59.606Z,21.33
2019-01-20T13:05:16.106Z,22.00
2019-01-20T13:09:32.691Z,17.43
2019-01-20T13:13:49.155Z,21.33
2019-01-20T13:18:06.652Z,16.27
2019-01-20T13:22:23.123Z,20.73
2019-01-20T13:26:39.843Z,21.03
2019-01-20T13:30:56.297Z,21.57
2019-01-20T13:35:13.638Z,26.07
2019-01-20T13:39:30.317Z,23.50
2019-01-20T13:43:47.300Z,19.73
2019-01-20T13:48:03.854Z,23.67
2019-01-20T13:52:21.524Z,24.50
2019-01-20T13:56:38.006Z,14.13
2019-01-20T14:00:56.392Z,17.67
2019-01-20T14:05:12.827Z,18.93
2019-01-20T14:09:29.280Z,28.37
2019-01-20T14:13:45.701Z,21.80
2019-01-20T14:18:02.509Z,26.43
2019-01-20T14:22:19.236Z,13.00
2019-01-20T14:26:42.119Z,13.53
2019-01-20T14:30:58.964Z,22.83
2019-01-20T14:35:15.416Z,13.13
2019-01-20T14:39:31.905Z,15.90
2019-01-20T14:43:48.549Z,9.63
2019-01-20T14:48:05.222Z,17.27
2019-01-20T14:52:21.896Z,16.53
2019-01-20T14:56:38.558Z,14.40
2019-01-20T15:00:55.888Z,10.30
2019-01-20T15:05:12.947Z,14.57
2019-01-20T15:09:29.566Z,12.13
2019-01-20T15:13:47.928Z,12.80
2019-01-20T15:18:04.776Z,8.97
2019-01-20T15:22:22.815Z,6.57
2019-01-20T15:26:39.294Z,7.77
2019-01-20T15:30:55.747Z,8.97
2019-01-20T15:35:12.461Z,13.67
2019-01-20T15:39:28.912Z,10.70
2019-01-20T15:43:45.368Z,11.30
2019-01-20T15:48:01.867Z,10.27
2019-01-20T15:52:18.562Z,10.83
2019-01-20T15:56:36.654Z,13.43
2019-01-20T16:00:53.879Z,9.83
2019-01-20T16:05:10.896Z,8.63
2019-01-20T16:09:27.352Z,8.80
2019-01-20T16:13:43.878Z,7.17
2019-01-20T16:18:00.344Z,5.97
2019-01-20T16:22:16.809Z,8.23
2019-01-20T16:26:33.674Z,4.13
2019-01-20T16:30:50.240Z,4.17
2019-01-20T16:35:09.983Z,3.30
2019-01-20T16:39:26.681Z,5.20
2019-01-20T16:43:43.831Z,3.10
2019-01-20T16:48:00.455Z,4.57
2019-01-20T16:52:19.068Z,3.83
2019-01-20T16:56:35.833Z,4.53
2019-01-20T17:00:52.610Z,3.53
2019-01-20T17:05:12.546Z,5.63
2019-01-20T17:09:29.352Z,5.47
2019-01-20T17:13:47.208Z,4.87
2019-01-20T17:18:05.461Z,8.87
2019-01-20T17:22:23.479Z,9.33
2019-01-20T17:26:40.013Z,11.87
2019-01-20T17:30:58.110Z,4.90
2019-01-20T17:35:14.943Z,5.33
2019-01-20T17:39:32.628Z,6.43
2019-01-20T17:43:51.298Z,8.87
2019-01-20T17:48:07.778Z,5.90
2019-01-20T17:52:25.856Z,7.93
2019-01-20T17:56:42.322Z,5.63
2019-01-20T18:01:01.089Z,8.13
2019-01-20T18:05:21.079Z,6.23
2019-01-20T18:09:37.713Z,10.50
2019-01-20T18:13:54.259Z,8.33
2019-01-20T18:18:11.014Z,7.40
2019-01-20T18:22:27.587Z,9.20
2019-01-20T18:26:44.127Z,6.30
2019-01-20T18:31:00.951Z,5.40
2019-01-20T18:35:17.435Z,6.10
2019-01-20T18:39:33.925Z,5.17
2019-01-20T18:43:50.735Z,8.80
2019-01-20T18:48:07.591Z,5.57
2019-01-20T18:52:25.647Z,7.10
2019-01-20T18:56:42.431Z,8.33
2019-01-20T19:01:01.076Z,8.63
2019-01-20T19:05:17.619Z,12.67
2019-01-20T19:09:36.389Z,6.73
2019-01-20T19:13:58.389Z,6.67
2019-01-20T19:18:19.143Z,5.07
2019-01-20T19:22:33.824Z,8.07
2019-01-20T19:26:50.657Z,8.70
2019-01-20T19:31:09.591Z,7.67
2019-01-20T19:35:26.119Z,8.00
2019-01-20T19:39:42.580Z,10.50
2019-01-20T19:44:01.459Z,7.57
2019-01-20T19:48:20.251Z,8.37
2019-01-20T19:52:36.808Z,7.40
2019-01-20T19:56:58.165Z,7.27
2019-01-20T20:01:14.789Z,10.00
2019-01-20T20:50:22.095Z,10.27
2019-01-20T20:55:15.508Z,9.73
2019-01-20T20:59:07.311Z,13.63
2019-01-20T21:03:26.949Z,7.57
2019-01-20T21:07:50.760Z,7.53
2019-01-20T21:12:12.011Z,7.93
2019-01-20T21:16:37.831Z,8.77
2019-01-20T21:20:57.789Z,14.77
2019-01-20T21:25:35.176Z,8.70
